sensor_id;sensor_type;location;lat;lon;timestamp;P1;durP1;ratioP1;P2;durP2;ratioP2
2548;SDS011;1284;53.520;10.248;2023-02-18T00:00:06;0.75;;;0.65;;
2548;SDS011;1284;53.520;10.248;2023-02-18T00:02:36;0.40;;;0.40;;
2548;SDS011;1284;53.520;10.248;2023-02-18T00:05:01;0.40;;;0.40;;
2548;SDS011;1284;53.520;10.248;2023-02-18T00:07:27;0.10;;;0.10;;
2548;SDS011;1284;53.520;10.248;2023-02-18T00:09:53;0.10;;;0.10;;
2548;SDS011;1284;53.520;10.248;2023-02-18T00:12:18;0.20;;;0.20;;
2548;SDS011;1284;53.520;10.248;2023-02-18T00:14:43;3.53;;;1.38;;
2548;SDS011;1284;53.520;10.248;2023-02-18T00:17:09;0.10;;;0.10;;
2548;SDS011;1284;53.520;10.248;2023-02-18T00:19:34;1.10;;;0.68;;
2548;SDS011;1284;53.520;10.248;2023-02-18T00:22:00;3.00;;;0.47;;
2548;SDS011;1284;53.520;10.248;2023-02-18T00:24:25;0.20;;;0.20;;
2548;SDS011;1284;53.520;10.248;2023-02-18T00:26:51;0.15;;;0.15;;
2548;SDS011;1284;53.520;10.248;2023-02-18T00:29:17;0.17;;;0.17;;
2548;SDS011;1284;53.520;10.248;2023-02-18T00:31:43;0.10;;;0.10;;
2548;SDS011;1284;53.520;10.248;2023-02-18T00:34:09;1.00;;;1.00;;
2548;SDS011;1284;53.520;10.248;2023-02-18T00:36:36;0.35;;;0.35;;
2548;SDS011;1284;53.520;10.248;2023-02-18T00:39:03;0.13;;;0.13;;
2548;SDS011;1284;53.520;10.248;2023-02-18T00:41:31;0.38;;;0.38;;
2548;SDS011;1284;53.520;10.248;2023-02-18T00:43:57;0.10;;;0.10;;
2548;SDS011;1284;53.520;10.248;2023-02-18T00:46:23;0.60;;;0.60;;
2548;SDS011;1284;53.520;10.248;2023-02-18T00:48:49;0.95;;;0.30;;
2548;SDS011;1284;53.520;10.248;2023-02-18T00:51:14;0.20;;;0.20;;
2548;SDS011;1284;53.520;10.248;2023-02-18T00:53:40;0.57;;;0.57;;
2548;SDS011;1284;53.520;10.248;2023-02-18T00:56:06;0.45;;;0.30;;
2548;SDS011;1284;53.520;10.248;2023-02-18T00:58:32;0.43;;;0.43;;
2548;SDS011;1284;53.520;10.248;2023-02-18T01:00:58;0.30;;;0.30;;
2548;SDS011;1284;53.520;10.248;2023-02-18T01:03:23;0.10;;;0.10;;
2548;SDS011;1284;53.520;10.248;2023-02-18T01:05:50;0.40;;;0.40;;
2548;SDS011;1284;53.520;10.248;2023-02-18T01:08:16;0.30;;;0.30;;
2548;SDS011;1284;53.520;10.248;2023-02-18T01:10:43;0.10;;;0.10;;
2548;SDS011;1284;53.520;10.248;2023-02-18T01:13:12;0.45;;;0.40;;
2548;SDS011;1284;53.520;10.248;2023-02-18T01:15:39;0.10;;;0.10;;
2548;SDS011;1284;53.520;10.248;2023-02-18T01:18:05;0.20;;;0.20;;
2548;SDS011;1284;53.520;10.248;2023-02-18T01:20:35;1.25;;;0.32;;
2548;SDS011;1284;53.520;10.248;2023-02-18T01:23:02;0.70;;;0.55;;
2548;SDS011;1284;53.520;10.248;2023-02-18T01:25:29;0.10;;;0.10;;
2548;SDS011;1284;53.520;10.248;2023-02-18T01:27:54;0.38;;;0.38;;
2548;SDS011;1284;53.520;10.248;2023-02-18T01:30:21;0.10;;;0.10;;
2548;SDS011;1284;53.520;10.248;2023-02-18T01:32:47;0.10;;;0.10;;
2548;SDS011;1284;53.520;10.248;2023-02-18T01:35:14;0.20;;;0.20;;
2548;SDS011;1284;53.520;10.248;2023-02-18T01:37:41;0.20;;;0.20;;
2548;SDS011;1284;53.520;10.248;2023-02-18T01:40:08;0.20;;;0.20;;
2548;SDS011;1284;53.520;10.248;2023-02-18T01:42:36;0.10;;;0.10;;
2548;SDS011;1284;53.520;10.248;2023-02-18T01:48:03;0.10;;;0.10;;
2548;SDS011;1284;53.520;10.248;2023-02-18T01:53:00;0.10;;;0.10;;
2548;SDS011;1284;53.520;10.248;2023-02-18T01:55:29;0.20;;;0.20;;
2548;SDS011;1284;53.520;10.248;2023-02-18T01:57:55;0.98;;;0.90;;
2548;SDS011;1284;53.520;10.248;2023-02-18T02:00:20;0.10;;;0.10;;
2548;SDS011;1284;53.520;10.248;2023-02-18T02:02:47;0.20;;;0.20;;
2548;SDS011;1284;53.520;10.248;2023-02-18T02:05:14;0.20;;;0.20;;
2548;SDS011;1284;53.520;10.248;2023-02-18T02:07:41;0.20;;;0.20;;
2548;SDS011;1284;53.520;10.248;2023-02-18T02:10:07;0.30;;;0.30;;
2548;SDS011;1284;53.520;10.248;2023-02-18T02:15:43;0.10;;;0.10;;
2548;SDS011;1284;53.520;10.248;2023-02-18T02:37:49;0.32;;;0.32;;
2548;SDS011;1284;53.520;10.248;2023-02-18T02:53:45;0.20;;;0.20;;
2548;SDS011;1284;53.520;10.248;2023-02-18T02:56:19;0.17;;;0.17;;
2548;SDS011;1284;53.520;10.248;2023-02-18T02:58:59;0.10;;;0.10;;
2548;SDS011;1284;53.520;10.248;2023-02-18T03:21:26;0.20;;;0.20;;
2548;SDS011;1284;53.520;10.248;2023-02-18T03:24:19;0.45;;;0.38;;
2548;SDS011;1284;53.520;10.248;2023-02-18T03:26:51;0.10;;;0.10;;
2548;SDS011;1284;53.520;10.248;2023-02-18T03:29:20;0.10;;;0.10;;
2548;SDS011;1284;53.520;10.248;2023-02-18T03:31:50;0.20;;;0.20;;
2548;SDS011;1284;53.520;10.248;2023-02-18T03:34:25;0.13;;;0.13;;
2548;SDS011;1284;53.520;10.248;2023-02-18T03:36:56;0.15;;;0.15;;
2548;SDS011;1284;53.520;10.248;2023-02-18T03:39:24;0.20;;;0.20;;
2548;SDS011;1284;53.520;10.248;2023-02-18T03:41:54;0.10;;;0.10;;
2548;SDS011;1284;53.520;10.248;2023-02-18T03:44:19;0.45;;;0.40;;
2548;SDS011;1284;53.520;10.248;2023-02-18T03:46:45;0.20;;;0.20;;
2548;SDS011;1284;53.520;10.248;2023-02-18T03:49:11;0.93;;;0.30;;
2548;SDS011;1284;53.520;10.248;2023-02-18T03:51:38;1.95;;;0.52;;
2548;SDS011;1284;53.520;10.248;2023-02-18T03:54:06;0.20;;;0.20;;
2548;SDS011;1284;53.520;10.248;2023-02-18T03:56:32;0.15;;;0.15;;
2548;SDS011;1284;53.520;10.248;2023-02-18T03:58:58;0.10;;;0.10;;
2548;SDS011;1284;53.520;10.248;2023-02-18T04:01:24;0.10;;;0.10;;
2548;SDS011;1284;53.520;10.248;2023-02-18T04:03:52;0.10;;;0.10;;
2548;SDS011;1284;53.520;10.248;2023-02-18T04:06:20;0.20;;;0.20;;
2548;SDS011;1284;53.520;10.248;2023-02-18T04:08:46;0.10;;;0.10;;
2548;SDS011;1284;53.520;10.248;2023-02-18T04:11:11;0.10;;;0.10;;
2548;SDS011;1284;53.520;10.248;2023-02-18T04:13:37;0.20;;;0.20;;
2548;SDS011;1284;53.520;10.248;2023-02-18T04:16:02;0.10;;;0.10;;
2548;SDS011;1284;53.520;10.248;2023-02-18T04:18:28;0.10;;;0.10;;
2548;SDS011;1284;53.520;10.248;2023-02-18T04:20:53;0.15;;;0.15;;
2548;SDS011;1284;53.520;10.248;2023-02-18T04:23:19;0.20;;;0.20;;
2548;SDS011;1284;53.520;10.248;2023-02-18T04:25:44;0.20;;;0.20;;
2548;SDS011;1284;53.520;10.248;2023-02-18T04:28:10;0.20;;;0.20;;
2548;SDS011;1284;53.520;10.248;2023-02-18T04:30:38;0.10;;;0.10;;
2548;SDS011;1284;53.520;10.248;2023-02-18T04:33:07;0.17;;;0.17;;
2548;SDS011;1284;53.520;10.248;2023-02-18T04:35:33;0.15;;;0.15;;
2548;SDS011;1284;53.520;10.248;2023-02-18T04:37:58;0.28;;;0.28;;
2548;SDS011;1284;53.520;10.248;2023-02-18T04:40:24;0.20;;;0.20;;
2548;SDS011;1284;53.520;10.248;2023-02-18T04:42:53;0.30;;;0.30;;
2548;SDS011;1284;53.520;10.248;2023-02-18T04:45:19;0.20;;;0.20;;
2548;SDS011;1284;53.520;10.248;2023-02-18T04:47:44;0.20;;;0.20;;
2548;SDS011;1284;53.520;10.248;2023-02-18T04:50:10;0.63;;;0.30;;
2548;SDS011;1284;53.520;10.248;2023-02-18T04:52:35;2.40;;;1.65;;
2548;SDS011;1284;53.520;10.248;2023-02-18T04:55:00;0.28;;;0.28;;
2548;SDS011;1284;53.520;10.248;2023-02-18T04:57:26;0.10;;;0.10;;
2548;SDS011;1284;53.520;10.248;2023-02-18T04:59:51;0.57;;;0.57;;
2548;SDS011;1284;53.520;10.248;2023-02-18T05:02:17;0.20;;;0.20;;
2548;SDS011;1284;53.520;10.248;2023-02-18T05:04:42;0.10;;;0.10;;
2548;SDS011;1284;53.520;10.248;2023-02-18T05:07:07;0.10;;;0.10;;
2548;SDS011;1284;53.520;10.248;2023-02-18T05:09:33;0.20;;;0.20;;
2548;SDS011;1284;53.520;10.248;2023-02-18T05:11:58;0.20;;;0.20;;
2548;SDS011;1284;53.520;10.248;2023-02-18T05:14:24;0.43;;;0.43;;
2548;SDS011;1284;53.520;10.248;2023-02-18T05:16:49;0.20;;;0.20;;
2548;SDS011;1284;53.520;10.248;2023-02-18T05:19:15;0.17;;;0.17;;
2548;SDS011;1284;53.520;10.248;2023-02-18T05:21:41;0.20;;;0.20;;
2548;SDS011;1284;53.520;10.248;2023-02-18T05:24:06;0.77;;;0.60;;
2548;SDS011;1284;53.520;10.248;2023-02-18T05:26:32;0.15;;;0.15;;
2548;SDS011;1284;53.520;10.248;2023-02-18T05:28:58;0.10;;;0.10;;
2548;SDS011;1284;53.520;10.248;2023-02-18T05:31:24;0.10;;;0.10;;
2548;SDS011;1284;53.520;10.248;2023-02-18T05:33:49;0.20;;;0.20;;
2548;SDS011;1284;53.520;10.248;2023-02-18T05:36:15;0.45;;;0.45;;
2548;SDS011;1284;53.520;10.248;2023-02-18T05:38:40;0.30;;;0.30;;
2548;SDS011;1284;53.520;10.248;2023-02-18T05:41:06;0.20;;;0.20;;
2548;SDS011;1284;53.520;10.248;2023-02-18T05:43:31;0.40;;;0.40;;
2548;SDS011;1284;53.520;10.248;2023-02-18T05:46:16;0.20;;;0.20;;
2548;SDS011;1284;53.520;10.248;2023-02-18T05:48:42;0.20;;;0.20;;
2548;SDS011;1284;53.520;10.248;2023-02-18T05:51:07;0.20;;;0.20;;
2548;SDS011;1284;53.520;10.248;2023-02-18T05:53:32;0.10;;;0.10;;
2548;SDS011;1284;53.520;10.248;2023-02-18T05:55:58;0.20;;;0.20;;
2548;SDS011;1284;53.520;10.248;2023-02-18T05:58:23;0.10;;;0.10;;
2548;SDS011;1284;53.520;10.248;2023-02-18T06:00:49;0.77;;;0.38;;
2548;SDS011;1284;53.520;10.248;2023-02-18T06:03:15;0.20;;;0.20;;
2548;SDS011;1284;53.520;10.248;2023-02-18T06:05:40;0.10;;;0.10;;
2548;SDS011;1284;53.520;10.248;2023-02-18T06:08:05;0.10;;;0.10;;
2548;SDS011;1284;53.520;10.248;2023-02-18T06:10:31;0.10;;;0.10;;
2548;SDS011;1284;53.520;10.248;2023-02-18T06:12:56;0.10;;;0.10;;
2548;SDS011;1284;53.520;10.248;2023-02-18T06:15:22;0.20;;;0.20;;
2548;SDS011;1284;53.520;10.248;2023-02-18T06:17:47;1.48;;;0.40;;
2548;SDS011;1284;53.520;10.248;2023-02-18T06:20:13;0.20;;;0.20;;
2548;SDS011;1284;53.520;10.248;2023-02-18T06:22:38;0.20;;;0.20;;
2548;SDS011;1284;53.520;10.248;2023-02-18T06:25:03;0.50;;;0.50;;
2548;SDS011;1284;53.520;10.248;2023-02-18T06:27:29;0.30;;;0.30;;
2548;SDS011;1284;53.520;10.248;2023-02-18T06:29:55;0.30;;;0.30;;
2548;SDS011;1284;53.520;10.248;2023-02-18T06:32:20;0.22;;;0.22;;
2548;SDS011;1284;53.520;10.248;2023-02-18T06:34:45;0.17;;;0.17;;
2548;SDS011;1284;53.520;10.248;2023-02-18T06:37:11;0.20;;;0.20;;
2548;SDS011;1284;53.520;10.248;2023-02-18T06:39:37;0.30;;;0.30;;
2548;SDS011;1284;53.520;10.248;2023-02-18T06:42:03;0.40;;;0.40;;
2548;SDS011;1284;53.520;10.248;2023-02-18T06:44:28;1.75;;;0.30;;
2548;SDS011;1284;53.520;10.248;2023-02-18T06:46:54;0.20;;;0.20;;
2548;SDS011;1284;53.520;10.248;2023-02-18T06:49:19;0.20;;;0.20;;
2548;SDS011;1284;53.520;10.248;2023-02-18T06:51:45;0.15;;;0.15;;
2548;SDS011;1284;53.520;10.248;2023-02-18T06:54:10;0.10;;;0.10;;
2548;SDS011;1284;53.520;10.248;2023-02-18T06:56:35;0.20;;;0.20;;
2548;SDS011;1284;53.520;10.248;2023-02-18T06:59:01;2.38;;;0.40;;
2548;SDS011;1284;53.520;10.248;2023-02-18T07:01:26;0.22;;;0.22;;
2548;SDS011;1284;53.520;10.248;2023-02-18T07:03:52;0.20;;;0.20;;
2548;SDS011;1284;53.520;10.248;2023-02-18T07:06:17;0.20;;;0.20;;
2548;SDS011;1284;53.520;10.248;2023-02-18T07:08:45;0.20;;;0.20;;
2548;SDS011;1284;53.520;10.248;2023-02-18T07:11:10;0.30;;;0.30;;
2548;SDS011;1284;53.520;10.248;2023-02-18T07:13:36;0.17;;;0.17;;
2548;SDS011;1284;53.520;10.248;2023-02-18T07:16:01;0.10;;;0.10;;
2548;SDS011;1284;53.520;10.248;2023-02-18T07:18:27;0.20;;;0.20;;
2548;SDS011;1284;53.520;10.248;2023-02-18T07:20:52;0.22;;;0.20;;
2548;SDS011;1284;53.520;10.248;2023-02-18T07:23:18;0.20;;;0.20;;
2548;SDS011;1284;53.520;10.248;2023-02-18T07:25:43;0.20;;;0.20;;
2548;SDS011;1284;53.520;10.248;2023-02-18T07:28:09;0.40;;;0.30;;
2548;SDS011;1284;53.520;10.248;2023-02-18T07:30:34;0.35;;;0.35;;
2548;SDS011;1284;53.520;10.248;2023-02-18T07:32:59;0.10;;;0.10;;
2548;SDS011;1284;53.520;10.248;2023-02-18T07:35:25;0.40;;;0.40;;
2548;SDS011;1284;53.520;10.248;2023-02-18T07:37:50;0.28;;;0.28;;
2548;SDS011;1284;53.520;10.248;2023-02-18T07:40:17;0.20;;;0.20;;
2548;SDS011;1284;53.520;10.248;2023-02-18T07:42:44;0.10;;;0.10;;
2548;SDS011;1284;53.520;10.248;2023-02-18T07:45:09;0.10;;;0.10;;
2548;SDS011;1284;53.520;10.248;2023-02-18T07:47:35;0.20;;;0.20;;
2548;SDS011;1284;53.520;10.248;2023-02-18T07:50:01;0.10;;;0.10;;
2548;SDS011;1284;53.520;10.248;2023-02-18T07:52:27;0.20;;;0.20;;
2548;SDS011;1284;53.520;10.248;2023-02-18T07:54:52;0.95;;;0.28;;
2548;SDS011;1284;53.520;10.248;2023-02-18T07:57:17;0.10;;;0.10;;
2548;SDS011;1284;53.520;10.248;2023-02-18T07:59:43;0.40;;;0.40;;
2548;SDS011;1284;53.520;10.248;2023-02-18T08:02:26;0.10;;;0.10;;
2548;SDS011;1284;53.520;10.248;2023-02-18T08:04:52;0.13;;;0.13;;
2548;SDS011;1284;53.520;10.248;2023-02-18T08:07:18;4.22;;;0.55;;
2548;SDS011;1284;53.520;10.248;2023-02-18T08:09:45;0.15;;;0.15;;
2548;SDS011;1284;53.520;10.248;2023-02-18T08:12:13;1.17;;;0.25;;
2548;SDS011;1284;53.520;10.248;2023-02-18T08:14:38;0.32;;;0.32;;
2548;SDS011;1284;53.520;10.248;2023-02-18T08:17:04;0.20;;;0.20;;
2548;SDS011;1284;53.520;10.248;2023-02-18T08:19:30;0.22;;;0.22;;
2548;SDS011;1284;53.520;10.248;2023-02-18T08:21:55;0.10;;;0.10;;
2548;SDS011;1284;53.520;10.248;2023-02-18T08:24:21;0.20;;;0.20;;
2548;SDS011;1284;53.520;10.248;2023-02-18T08:26:46;0.20;;;0.20;;
2548;SDS011;1284;53.520;10.248;2023-02-18T08:29:11;1.00;;;0.73;;
2548;SDS011;1284;53.520;10.248;2023-02-18T08:31:37;0.20;;;0.20;;
2548;SDS011;1284;53.520;10.248;2023-02-18T08:34:02;0.20;;;0.20;;
2548;SDS011;1284;53.520;10.248;2023-02-18T08:36:28;0.65;;;0.20;;
2548;SDS011;1284;53.520;10.248;2023-02-18T08:38:54;0.47;;;0.47;;
2548;SDS011;1284;53.520;10.248;2023-02-18T08:41:20;0.40;;;0.40;;
2548;SDS011;1284;53.520;10.248;2023-02-18T08:43:46;0.10;;;0.10;;
2548;SDS011;1284;53.520;10.248;2023-02-18T08:46:12;0.13;;;0.13;;
2548;SDS011;1284;53.520;10.248;2023-02-18T08:48:41;0.75;;;0.75;;
2548;SDS011;1284;53.520;10.248;2023-02-18T08:51:16;0.20;;;0.20;;
2548;SDS011;1284;53.520;10.248;2023-02-18T08:53:43;0.20;;;0.20;;
2548;SDS011;1284;53.520;10.248;2023-02-18T08:56:11;0.10;;;0.10;;
2548;SDS011;1284;53.520;10.248;2023-02-18T08:58:38;0.57;;;0.22;;
2548;SDS011;1284;53.520;10.248;2023-02-18T09:01:05;0.20;;;0.20;;
2548;SDS011;1284;53.520;10.248;2023-02-18T09:03:32;0.40;;;0.40;;
2548;SDS011;1284;53.520;10.248;2023-02-18T09:05:58;0.30;;;0.30;;
2548;SDS011;1284;53.520;10.248;2023-02-18T09:08:24;0.20;;;0.20;;
2548;SDS011;1284;53.520;10.248;2023-02-18T09:10:53;0.13;;;0.13;;
2548;SDS011;1284;53.520;10.248;2023-02-18T09:13:22;0.22;;;0.22;;
2548;SDS011;1284;53.520;10.248;2023-02-18T09:15:58;0.38;;;0.38;;
2548;SDS011;1284;53.520;10.248;2023-02-18T09:18:28;0.20;;;0.20;;
2548;SDS011;1284;53.520;10.248;2023-02-18T09:20:55;0.30;;;0.30;;
2548;SDS011;1284;53.520;10.248;2023-02-18T09:23:22;0.40;;;0.40;;
2548;SDS011;1284;53.520;10.248;2023-02-18T09:25:49;0.30;;;0.30;;
2548;SDS011;1284;53.520;10.248;2023-02-18T09:28:15;0.47;;;0.47;;
2548;SDS011;1284;53.520;10.248;2023-02-18T09:30:40;0.25;;;0.25;;
2548;SDS011;1284;53.520;10.248;2023-02-18T09:33:05;0.30;;;0.30;;
2548;SDS011;1284;53.520;10.248;2023-02-18T09:35:31;0.30;;;0.30;;
2548;SDS011;1284;53.520;10.248;2023-02-18T09:37:57;0.20;;;0.20;;
2548;SDS011;1284;53.520;10.248;2023-02-18T09:40:29;4.57;;;0.52;;
2548;SDS011;1284;53.520;10.248;2023-02-18T09:42:59;0.30;;;0.30;;
2548;SDS011;1284;53.520;10.248;2023-02-18T09:45:26;1.50;;;0.40;;
2548;SDS011;1284;53.520;10.248;2023-02-18T09:47:52;0.28;;;0.28;;
2548;SDS011;1284;53.520;10.248;2023-02-18T09:50:21;0.40;;;0.40;;
2548;SDS011;1284;53.520;10.248;2023-02-18T09:52:49;0.20;;;0.20;;
2548;SDS011;1284;53.520;10.248;2023-02-18T09:55:19;0.63;;;0.43;;
2548;SDS011;1284;53.520;10.248;2023-02-18T09:57:48;0.47;;;0.47;;
2548;SDS011;1284;53.520;10.248;2023-02-18T10:00:20;0.55;;;0.55;;
2548;SDS011;1284;53.520;10.248;2023-02-18T10:02:57;0.20;;;0.20;;
2548;SDS011;1284;53.520;10.248;2023-02-18T10:05:26;0.60;;;0.60;;
2548;SDS011;1284;53.520;10.248;2023-02-18T10:07:55;0.20;;;0.20;;
2548;SDS011;1284;53.520;10.248;2023-02-18T10:10:39;0.40;;;0.40;;
2548;SDS011;1284;53.520;10.248;2023-02-18T10:13:13;0.25;;;0.25;;
2548;SDS011;1284;53.520;10.248;2023-02-18T10:15:47;0.20;;;0.20;;
2548;SDS011;1284;53.520;10.248;2023-02-18T10:18:25;0.10;;;0.10;;
2548;SDS011;1284;53.520;10.248;2023-02-18T10:20:51;0.10;;;0.10;;
2548;SDS011;1284;53.520;10.248;2023-02-18T10:23:21;0.10;;;0.10;;
2548;SDS011;1284;53.520;10.248;2023-02-18T10:25:48;0.10;;;0.10;;
2548;SDS011;1284;53.520;10.248;2023-02-18T10:28:15;0.13;;;0.13;;
2548;SDS011;1284;53.520;10.248;2023-02-18T10:30:49;0.30;;;0.30;;
2548;SDS011;1284;53.520;10.248;2023-02-18T10:33:26;0.13;;;0.13;;
2548;SDS011;1284;53.520;10.248;2023-02-18T10:36:01;0.30;;;0.30;;
2548;SDS011;1284;53.520;10.248;2023-02-18T10:46:36;0.20;;;0.20;;
2548;SDS011;1284;53.520;10.248;2023-02-18T10:52:19;0.10;;;0.10;;
2548;SDS011;1284;53.520;10.248;2023-02-18T10:57:24;0.52;;;0.52;;
2548;SDS011;1284;53.520;10.248;2023-02-18T11:05:41;0.10;;;0.10;;
2548;SDS011;1284;53.520;10.248;2023-02-18T11:08:10;0.17;;;0.17;;
2548;SDS011;1284;53.520;10.248;2023-02-18T11:10:42;0.90;;;0.47;;
2548;SDS011;1284;53.520;10.248;2023-02-18T11:13:09;0.65;;;0.65;;
2548;SDS011;1284;53.520;10.248;2023-02-18T11:15:52;0.28;;;0.28;;
2548;SDS011;1284;53.520;10.248;2023-02-18T11:18:36;0.30;;;0.30;;
2548;SDS011;1284;53.520;10.248;2023-02-18T11:21:28;0.15;;;0.15;;
2548;SDS011;1284;53.520;10.248;2023-02-18T11:24:05;0.30;;;0.25;;
2548;SDS011;1284;53.520;10.248;2023-02-18T11:26:33;0.63;;;0.30;;
2548;SDS011;1284;53.520;10.248;2023-02-18T11:29:43;0.77;;;0.77;;
2548;SDS011;1284;53.520;10.248;2023-02-18T11:31:53;3.65;;;2.70;;
2548;SDS011;1284;53.520;10.248;2023-02-18T11:34:28;2.40;;;2.05;;
2548;SDS011;1284;53.520;10.248;2023-02-18T11:37:06;9.93;;;3.25;;
2548;SDS011;1284;53.520;10.248;2023-02-18T11:39:43;12.05;;;5.90;;
2548;SDS011;1284;53.520;10.248;2023-02-18T11:42:12;11.57;;;5.28;;
2548;SDS011;1284;53.520;10.248;2023-02-18T11:44:47;3.13;;;2.72;;
2548;SDS011;1284;53.520;10.248;2023-02-18T11:49:43;0.13;;;0.10;;
2548;SDS011;1284;53.520;10.248;2023-02-18T11:55:32;0.20;;;0.20;;
2548;SDS011;1284;53.520;10.248;2023-02-18T12:03:14;0.35;;;0.20;;
2548;SDS011;1284;53.520;10.248;2023-02-18T12:05:49;0.08;;;0.08;;
2548;SDS011;1284;53.520;10.248;2023-02-18T12:08:29;0.03;;;0.03;;
2548;SDS011;1284;53.520;10.248;2023-02-18T12:11:03;0.22;;;0.22;;
2548;SDS011;1284;53.520;10.248;2023-02-18T12:13:49;0.10;;;0.10;;
2548;SDS011;1284;53.520;10.248;2023-02-18T12:24:44;0.10;;;0.10;;
2548;SDS011;1284;53.520;10.248;2023-02-18T12:27:27;0.20;;;0.20;;
2548;SDS011;1284;53.520;10.248;2023-02-18T12:33:05;0.00;;;0.00;;
2548;SDS011;1284;53.520;10.248;2023-02-18T12:38:43;0.05;;;0.03;;
2548;SDS011;1284;53.520;10.248;2023-02-18T12:46:33;0.00;;;0.00;;
2548;SDS011;1284;53.520;10.248;2023-02-18T12:52:26;0.10;;;0.10;;
2548;SDS011;1284;53.520;10.248;2023-02-18T13:05:42;0.32;;;0.20;;
2548;SDS011;1284;53.520;10.248;2023-02-18T13:16:27;0.10;;;0.10;;
2548;SDS011;1284;53.520;10.248;2023-02-18T13:21:46;0.10;;;0.10;;
2548;SDS011;1284;53.520;10.248;2023-02-18T13:24:20;0.40;;;0.20;;
2548;SDS011;1284;53.520;10.248;2023-02-18T13:26:55;0.45;;;0.22;;
2548;SDS011;1284;53.520;10.248;2023-02-18T13:29:31;0.00;;;0.00;;
2548;SDS011;1284;53.520;10.248;2023-02-18T13:35:16;0.10;;;0.10;;
2548;SDS011;1284;53.520;10.248;2023-02-18T13:38:02;0.10;;;0.10;;
2548;SDS011;1284;53.520;10.248;2023-02-18T13:40:32;0.10;;;0.10;;
2548;SDS011;1284;53.520;10.248;2023-02-18T13:46:11;0.20;;;0.20;;
2548;SDS011;1284;53.520;10.248;2023-02-18T13:51:10;0.15;;;0.15;;
2548;SDS011;1284;53.520;10.248;2023-02-18T13:53:39;0.47;;;0.17;;
2548;SDS011;1284;53.520;10.248;2023-02-18T13:58:43;0.20;;;0.20;;
2548;SDS011;1284;53.520;10.248;2023-02-18T14:01:42;0.10;;;0.10;;
2548;SDS011;1284;53.520;10.248;2023-02-18T14:09:51;0.00;;;0.00;;
2548;SDS011;1284;53.520;10.248;2023-02-18T14:12:25;0.10;;;0.10;;
2548;SDS011;1284;53.520;10.248;2023-02-18T14:14:50;0.03;;;0.03;;
2548;SDS011;1284;53.520;10.248;2023-02-18T14:19:42;0.15;;;0.15;;
2548;SDS011;1284;53.520;10.248;2023-02-18T14:22:23;2.08;;;0.35;;
2548;SDS011;1284;53.520;10.248;2023-02-18T14:27:33;0.40;;;0.20;;
2548;SDS011;1284;53.520;10.248;2023-02-18T14:30:13;0.00;;;0.00;;
2548;SDS011;1284;53.520;10.248;2023-02-18T14:32:43;0.00;;;0.00;;
2548;SDS011;1284;53.520;10.248;2023-02-18T14:45:39;0.10;;;0.10;;
2548;SDS011;1284;53.520;10.248;2023-02-18T14:48:41;0.20;;;0.20;;
2548;SDS011;1284;53.520;10.248;2023-02-18T14:51:15;0.10;;;0.10;;
2548;SDS011;1284;53.520;10.248;2023-02-18T14:53:47;0.55;;;0.40;;
2548;SDS011;1284;53.520;10.248;2023-02-18T14:56:13;0.10;;;0.10;;
2548;SDS011;1284;53.520;10.248;2023-02-18T14:58:44;0.20;;;0.20;;
2548;SDS011;1284;53.520;10.248;2023-02-18T15:03:49;0.30;;;0.30;;
2548;SDS011;1284;53.520;10.248;2023-02-18T15:06:35;0.22;;;0.22;;
2548;SDS011;1284;53.520;10.248;2023-02-18T15:09:13;0.40;;;0.30;;
2548;SDS011;1284;53.520;10.248;2023-02-18T15:11:43;0.20;;;0.20;;
2548;SDS011;1284;53.520;10.248;2023-02-18T15:14:19;0.10;;;0.10;;
2548;SDS011;1284;53.520;10.248;2023-02-18T15:16:48;0.35;;;0.28;;
2548;SDS011;1284;53.520;10.248;2023-02-18T15:19:39;0.20;;;0.20;;
2548;SDS011;1284;53.520;10.248;2023-02-18T15:27:27;0.10;;;0.10;;
2548;SDS011;1284;53.520;10.248;2023-02-18T15:29:58;0.10;;;0.10;;
2548;SDS011;1284;53.520;10.248;2023-02-18T15:32:37;0.35;;;0.30;;
2548;SDS011;1284;53.520;10.248;2023-02-18T15:35:12;0.10;;;0.10;;
2548;SDS011;1284;53.520;10.248;2023-02-18T15:37:43;0.22;;;0.22;;
2548;SDS011;1284;53.520;10.248;2023-02-18T15:40:16;0.30;;;0.30;;
2548;SDS011;1284;53.520;10.248;2023-02-18T15:42:44;0.20;;;0.20;;
2548;SDS011;1284;53.520;10.248;2023-02-18T15:45:15;0.17;;;0.17;;
2548;SDS011;1284;53.520;10.248;2023-02-18T15:47:50;0.30;;;0.30;;
2548;SDS011;1284;53.520;10.248;2023-02-18T15:50:27;0.35;;;0.10;;
2548;SDS011;1284;53.520;10.248;2023-02-18T15:52:56;0.13;;;0.13;;
2548;SDS011;1284;53.520;10.248;2023-02-18T15:55:35;0.15;;;0.15;;
2548;SDS011;1284;53.520;10.248;2023-02-18T15:58:04;0.60;;;0.20;;
2548;SDS011;1284;53.520;10.248;2023-02-18T16:00:55;0.25;;;0.25;;
2548;SDS011;1284;53.520;10.248;2023-02-18T16:03:24;0.10;;;0.10;;
2548;SDS011;1284;53.520;10.248;2023-02-18T16:05:50;0.30;;;0.30;;
2548;SDS011;1284;53.520;10.248;2023-02-18T16:08:33;0.20;;;0.20;;
2548;SDS011;1284;53.520;10.248;2023-02-18T16:13:26;0.10;;;0.10;;
2548;SDS011;1284;53.520;10.248;2023-02-18T16:15:55;0.13;;;0.13;;
2548;SDS011;1284;53.520;10.248;2023-02-18T16:20:56;0.10;;;0.10;;
2548;SDS011;1284;53.520;10.248;2023-02-18T16:23:29;0.10;;;0.10;;
2548;SDS011;1284;53.520;10.248;2023-02-18T16:26:08;0.10;;;0.10;;
2548;SDS011;1284;53.520;10.248;2023-02-18T16:28:35;0.10;;;0.10;;
2548;SDS011;1284;53.520;10.248;2023-02-18T16:31:01;0.20;;;0.20;;
2548;SDS011;1284;53.520;10.248;2023-02-18T16:33:26;0.28;;;0.20;;
2548;SDS011;1284;53.520;10.248;2023-02-18T16:35:52;0.20;;;0.20;;
2548;SDS011;1284;53.520;10.248;2023-02-18T16:38:21;0.20;;;0.20;;
2548;SDS011;1284;53.520;10.248;2023-02-18T16:40:48;0.13;;;0.13;;
2548;SDS011;1284;53.520;10.248;2023-02-18T16:43:15;0.10;;;0.10;;
2548;SDS011;1284;53.520;10.248;2023-02-18T16:45:49;0.25;;;0.25;;
2548;SDS011;1284;53.520;10.248;2023-02-18T16:50:41;0.40;;;0.40;;
2548;SDS011;1284;53.520;10.248;2023-02-18T16:53:08;0.75;;;0.52;;
2548;SDS011;1284;53.520;10.248;2023-02-18T16:55:36;0.10;;;0.10;;
2548;SDS011;1284;53.520;10.248;2023-02-18T16:58:01;0.47;;;0.47;;
2548;SDS011;1284;53.520;10.248;2023-02-18T17:00:27;0.73;;;0.60;;
2548;SDS011;1284;53.520;10.248;2023-02-18T17:02:53;0.20;;;0.20;;
2548;SDS011;1284;53.520;10.248;2023-02-18T17:05:23;0.60;;;0.60;;
2548;SDS011;1284;53.520;10.248;2023-02-18T17:07:51;0.20;;;0.20;;
2548;SDS011;1284;53.520;10.248;2023-02-18T17:10:17;0.30;;;0.30;;
2548;SDS011;1284;53.520;10.248;2023-02-18T17:12:42;0.45;;;0.45;;
2548;SDS011;1284;53.520;10.248;2023-02-18T17:15:31;0.45;;;0.45;;
2548;SDS011;1284;53.520;10.248;2023-02-18T17:17:57;0.55;;;0.55;;
2548;SDS011;1284;53.520;10.248;2023-02-18T17:20:24;0.52;;;0.30;;
2548;SDS011;1284;53.520;10.248;2023-02-18T17:22:50;0.20;;;0.20;;
2548;SDS011;1284;53.520;10.248;2023-02-18T17:25:23;0.40;;;0.40;;
2548;SDS011;1284;53.520;10.248;2023-02-18T17:27:54;0.40;;;0.40;;
2548;SDS011;1284;53.520;10.248;2023-02-18T17:30:19;0.35;;;0.35;;
2548;SDS011;1284;53.520;10.248;2023-02-18T17:32:45;0.90;;;0.88;;
2548;SDS011;1284;53.520;10.248;2023-02-18T17:35:18;0.40;;;0.28;;
2548;SDS011;1284;53.520;10.248;2023-02-18T17:37:45;0.45;;;0.45;;
2548;SDS011;1284;53.520;10.248;2023-02-18T17:40:15;0.20;;;0.20;;
2548;SDS011;1284;53.520;10.248;2023-02-18T17:42:42;0.30;;;0.30;;
2548;SDS011;1284;53.520;10.248;2023-02-18T17:45:11;0.38;;;0.32;;
2548;SDS011;1284;53.520;10.248;2023-02-18T17:47:59;0.50;;;0.50;;
2548;SDS011;1284;53.520;10.248;2023-02-18T17:50:27;0.60;;;0.60;;
2548;SDS011;1284;53.520;10.248;2023-02-18T17:52:53;0.30;;;0.30;;
2548;SDS011;1284;53.520;10.248;2023-02-18T17:57:50;0.60;;;0.50;;
2548;SDS011;1284;53.520;10.248;2023-02-18T18:00:17;0.35;;;0.35;;
2548;SDS011;1284;53.520;10.248;2023-02-18T18:02:49;0.22;;;0.22;;
2548;SDS011;1284;53.520;10.248;2023-02-18T18:05:16;0.32;;;0.32;;
2548;SDS011;1284;53.520;10.248;2023-02-18T18:08:02;0.45;;;0.45;;
2548;SDS011;1284;53.520;10.248;2023-02-18T18:10:30;1.17;;;0.65;;
2548;SDS011;1284;53.520;10.248;2023-02-18T18:12:58;1.08;;;0.45;;
2548;SDS011;1284;53.520;10.248;2023-02-18T18:15:29;1.00;;;0.95;;
2548;SDS011;1284;53.520;10.248;2023-02-18T18:17:59;0.90;;;0.45;;